Time;durP1;ratioP1;P1;durP2;ratioP2;P2;SDS_P1;SDS_P2;PMS_P1;PMS_P2;Temp;Humidity;BMP_temperature;BMP_pressure;BME280_temperature;BME280_humidity;BME280_pressure;Samples;Min_cycle;Max_cycle;Signal;HPM_P1;HPM_P2
2021/08/04 00:01:46;;;;;;;20.50;18.33;;;;;;;;;;4996729;28;20437;-80
2021/08/04 00:04:12;;;;;;;18.53;16.63;;;;;;;;;;4995756;28;20794;-80
2021/08/04 00:06:38;;;;;;;18.90;16.87;;;;;;;;;;4996454;28;20411;-80
2021/08/04 00:09:12;;;;;;;19.23;16.90;;;;;;;;;;4995185;28;20465;-80
2021/08/04 00:11:38;;;;;;;20.80;18.60;;;;;;;;;;4996491;28;20411;-80
2021/08/04 00:14:07;;;;;;;17.50;14.97;;;;;;;;;;4996255;28;20614;-80
2021/08/04 00:16:33;;;;;;;21.90;16.17;;;;;;;;;;4995165;28;20418;-79
2021/08/04 00:19:01;;;;;;;18.97;16.37;;;;;;;;;;4996372;28;20410;-80
2021/08/04 00:21:27;;;;;;;17.77;15.87;;;;;;;;;;4994840;28;20494;-80
2021/08/04 00:24:03;;;;;;;19.43;16.27;;;;;;;;;;4994788;28;20739;-79
2021/08/04 00:26:34;;;;;;;20.27;16.53;;;;;;;;;;4996090;28;20430;-79
2021/08/04 00:29:07;;;;;;;19.57;15.83;;;;;;;;;;4996106;28;20833;-79
2021/08/04 00:31:52;;;;;;;;;;;;;;;;;;;;;
2021/08/04 00:34:22;;;;;;;21.30;16.30;;;;;;;;;;4990336;28;20433;-79
2021/08/04 00:36:48;;;;;;;18.90;16.90;;;;;;;;;;4996025;28;20435;-79
2021/08/04 00:39:14;;;;;;;21.83;18.77;;;;;;;;;;4995942;28;20887;-79
2021/08/04 00:41:42;;;;;;;18.97;16.97;;;;;;;;;;4995925;28;20422;-80
2021/08/04 00:44:09;;;;;;;18.90;16.10;;;;;;;;;;4995578;28;20416;-81
2021/08/04 00:46:41;;;;;;;20.27;17.93;;;;;;;;;;4995418;28;20501;-79
2021/08/04 00:49:08;;;;;;;23.43;20.17;;;;;;;;;;4994457;28;20970;-79
2021/08/04 00:51:34;;;;;;;21.57;18.70;;;;;;;;;;4995824;28;20469;-79
2021/08/04 00:54:03;;;;;;;23.43;17.17;;;;;;;;;;4995336;28;20415;-79
2021/08/04 00:56:29;;;;;;;19.80;17.20;;;;;;;;;;4995592;28;20430;-79
2021/08/04 00:58:55;;;;;;;22.80;19.20;;;;;;;;;;4995686;28;20419;-80
2021/08/04 01:01:22;;;;;;;23.10;17.60;;;;;;;;;;4995473;28;20431;-79
2021/08/04 01:03:53;;;;;;;22.47;19.40;;;;;;;;;;4995374;28;20497;-79
2021/08/04 01:06:32;;;;;;;24.80;21.07;;;;;;;;;;4995174;28;20791;-79
2021/08/04 01:08:58;;;;;;;30.63;21.93;;;;;;;;;;4995460;28;20443;-79
2021/08/04 01:11:30;;;;;;;22.63;19.30;;;;;;;;;;4995383;28;20488;-79
2021/08/04 01:14:00;;;;;;;24.23;19.90;;;;;;;;;;4995308;28;20751;-82
2021/08/04 01:16:31;;;;;;;25.27;19.30;;;;;;;;;;4995396;28;21009;-80
2021/08/04 01:18:59;;;;;;;24.23;18.70;;;;;;;;;;4995318;28;20426;-79
2021/08/04 01:21:44;;;;;;;23.52;17.85;;;;;;;;;;4995188;28;20426;-79
2021/08/04 01:24:10;;;;;;;24.13;20.27;;;;;;;;;;4994739;28;20211;-78
2021/08/04 01:26:41;;;;;;;21.20;18.33;;;;;;;;;;4995080;28;20585;-79
2021/08/04 01:29:08;;;;;;;23.00;19.13;;;;;;;;;;4994920;28;20509;-79
2021/08/04 01:31:35;;;;;;;20.03;17.77;;;;;;;;;;4995022;28;20415;-78
2021/08/04 01:34:01;;;;;;;26.80;19.40;;;;;;;;;;4994802;28;20413;-79
2021/08/04 01:36:28;;;;;;;24.58;18.80;;;;;;;;;;4994683;28;20435;-78
2021/08/04 01:38:57;;;;;;;21.77;19.42;;;;;;;;;;4994881;28;20172;-78
2021/08/04 01:41:24;;;;;;;25.00;18.80;;;;;;;;;;4994848;28;20180;-79
2021/08/04 01:43:53;;;;;;;20.67;17.63;;;;;;;;;;4994612;28;20167;-79
2021/08/04 01:46:20;;;;;;;24.50;18.33;;;;;;;;;;4994768;28;20423;-79
2021/08/04 01:48:46;;;;;;;21.07;18.57;;;;;;;;;;4993468;28;20466;-79
2021/08/04 01:51:13;;;;;;;25.00;20.00;;;;;;;;;;4994743;28;20746;-79
2021/08/04 01:53:41;;;;;;;27.70;20.30;;;;;;;;;;4993002;28;20423;-78
2021/08/04 01:56:07;;;;;;;22.95;19.40;;;;;;;;;;4993596;28;20427;-78
2021/08/04 01:58:33;;;;;;;22.65;19.67;;;;;;;;;;4992607;28;20180;-79
2021/08/04 02:01:00;;;;;;;24.30;18.80;;;;;;;;;;4977257;28;20564;-79
2021/08/04 02:03:26;;;;;;;22.90;18.47;;;;;;;;;;4994249;28;20190;-79
2021/08/04 02:06:14;;;;;;;19.27;17.17;;;;;;;;;;5043525;23;20519;-79
2021/08/04 02:12:15;;;;;;;26.25;20.38;;;;;;;;;;5020209;28;20413;-78
2021/08/04 02:15:43;;;;;;;25.13;19.00;;;;;;;;;;4998196;28;20518;-79
2021/08/04 02:18:32;;;;;;;23.70;19.13;;;;;;;;;;4953262;28;20625;-80
2021/08/04 02:21:23;;;;;;;21.88;17.63;;;;;;;;;;4945702;29;20252;-79
2021/08/04 02:23:53;;;;;;;25.80;20.50;;;;;;;;;;5028566;28;20194;-79
2021/08/04 02:26:28;;;;;;;26.50;21.00;;;;;;;;;;5032911;28;20890;-79
2021/08/04 02:28:59;;;;;;;25.67;22.83;;;;;;;;;;5015296;28;20472;-79
2021/08/04 02:31:38;;;;;;;28.23;23.67;;;;;;;;;;5033265;28;20189;-79
2021/08/04 02:34:28;;;;;;;32.88;24.35;;;;;;;;;;5032920;28;20670;-79
2021/08/04 02:36:57;;;;;;;23.33;18.70;;;;;;;;;;5033009;28;20250;-79
2021/08/04 02:39:27;;;;;;;31.63;22.02;;;;;;;;;;5033115;28;20182;-78
2021/08/04 02:42:21;;;;;;;30.80;24.15;;;;;;;;;;5033141;28;20162;-78
2021/08/04 02:44:56;;;;;;;30.00;23.30;;;;;;;;;;5032790;28;20206;-78
2021/08/04 02:47:23;;;;;;;29.33;23.08;;;;;;;;;;5016553;28;20170;-79
2021/08/04 02:49:50;;;;;;;30.73;22.88;;;;;;;;;;5033249;28;20177;-78
2021/08/04 02:52:19;;;;;;;23.07;19.87;;;;;;;;;;5033124;28;20245;-79
2021/08/04 02:54:46;;;;;;;26.00;23.20;;;;;;;;;;5014923;28;20490;-78
2021/08/04 02:57:13;;;;;;;23.73;20.30;;;;;;;;;;5032983;28;20829;-79
2021/08/04 02:59:39;;;;;;;29.08;22.10;;;;;;;;;;5033123;28;20627;-78
2021/08/04 03:02:05;;;;;;;27.42;20.77;;;;;;;;;;5032993;28;20534;-78
2021/08/04 03:04:31;;;;;;;24.13;19.60;;;;;;;;;;5032716;28;20201;-78
2021/08/04 03:06:57;;;;;;;23.53;20.60;;;;;;;;;;5032846;28;20190;-78
2021/08/04 03:09:23;;;;;;;32.58;24.63;;;;;;;;;;5032767;28;20963;-78
2021/08/04 03:11:49;;;;;;;32.60;24.00;;;;;;;;;;5036799;28;20170;-78
2021/08/04 03:14:17;;;;;;;27.50;23.10;;;;;;;;;;5036500;28;20400;-78
2021/08/04 03:16:46;;;;;;;27.48;23.08;;;;;;;;;;5036862;28;20961;-78
2021/08/04 03:19:15;;;;;;;31.15;21.38;;;;;;;;;;5036628;28;20633;-78
2021/08/04 03:21:42;;;;;;;36.28;23.13;;;;;;;;;;5036765;28;20674;-78
2021/08/04 03:24:08;;;;;;;28.20;22.45;;;;;;;;;;5036483;28;20174;-78
2021/08/04 03:26:43;;;;;;;33.13;23.30;;;;;;;;;;5036601;28;20175;-78
2021/08/04 03:29:09;;;;;;;30.55;23.23;;;;;;;;;;5036426;28;20296;-78
2021/08/04 03:31:35;;;;;;;26.07;22.27;;;;;;;;;;5018786;28;20213;-78
2021/08/04 03:34:01;;;;;;;34.97;22.67;;;;;;;;;;5036453;28;20409;-78
2021/08/04 03:36:28;;;;;;;32.43;23.70;;;;;;;;;;5036424;28;20568;-78
2021/08/04 03:38:54;;;;;;;33.60;24.90;;;;;;;;;;5018753;28;20929;-78
2021/08/04 03:41:21;;;;;;;30.98;23.27;;;;;;;;;;5036244;28;20597;-78
2021/08/04 03:43:47;;;;;;;29.02;23.52;;;;;;;;;;5036325;28;20204;-78
2021/08/04 03:46:13;;;;;;;27.73;21.77;;;;;;;;;;5018652;28;20300;-78
2021/08/04 03:48:39;;;;;;;26.83;20.48;;;;;;;;;;5018574;28;20552;-78
2021/08/04 03:51:05;;;;;;;27.97;23.80;;;;;;;;;;5036358;28;20268;-78
2021/08/04 03:53:31;;;;;;;37.38;26.90;;;;;;;;;;5035910;28;20415;-78
2021/08/04 03:55:57;;;;;;;33.22;25.80;;;;;;;;;;5018321;28;20206;-78
2021/08/04 03:58:22;;;;;;;41.80;27.57;;;;;;;;;;5036089;28;20635;-78
2021/08/04 04:00:48;;;;;;;38.50;28.40;;;;;;;;;;5036280;28;20447;-78
2021/08/04 04:03:14;;;;;;;40.07;27.67;;;;;;;;;;5035574;28;20421;-79
2021/08/04 04:05:40;;;;;;;36.40;25.45;;;;;;;;;;5035680;28;20843;-77
2021/08/04 04:08:06;;;;;;;34.92;24.65;;;;;;;;;;5018091;28;20663;-78
2021/08/04 04:10:32;;;;;;;36.50;25.37;;;;;;;;;;5036116;28;20177;-77
2021/08/04 04:12:58;;;;;;;41.92;25.95;;;;;;;;;;5035591;28;20845;-77
2021/08/04 04:15:24;;;;;;;32.37;24.33;;;;;;;;;;5035838;28;20275;-78
2021/08/04 04:17:50;;;;;;;33.23;25.53;;;;;;;;;;5035755;28;20936;-78
2021/08/04 04:20:16;;;;;;;29.97;22.93;;;;;;;;;;5035739;28;20444;-77
2021/08/04 04:22:44;;;;;;;29.17;23.70;;;;;;;;;;5034886;28;20413;-77
2021/08/04 04:25:11;;;;;;;31.80;22.87;;;;;;;;;;5035520;28;20487;-77
2021/08/04 04:27:37;;;;;;;30.87;24.40;;;;;;;;;;5035476;28;20507;-78
2021/08/04 04:30:03;;;;;;;28.48;23.20;;;;;;;;;;5035409;28;20424;-78
2021/08/04 04:32:29;;;;;;;30.33;23.48;;;;;;;;;;5035433;28;20265;-77
2021/08/04 04:34:55;;;;;;;32.67;24.20;;;;;;;;;;5017325;28;20306;-78
2021/08/04 04:37:21;;;;;;;29.40;23.37;;;;;;;;;;5017834;28;20417;-78
2021/08/04 04:39:47;;;;;;;29.67;23.70;;;;;;;;;;5034950;28;20409;-78
2021/08/04 04:42:13;;;;;;;33.28;22.48;;;;;;;;;;5017532;28;20521;-77
2021/08/04 04:44:39;;;;;;;27.90;22.50;;;;;;;;;;5034898;28;20198;-78
2021/08/04 04:47:05;;;;;;;32.23;24.13;;;;;;;;;;5035232;28;20426;-77
2021/08/04 04:49:31;;;;;;;31.55;24.35;;;;;;;;;;5035107;28;20613;-78
2021/08/04 04:51:57;;;;;;;31.13;25.23;;;;;;;;;;5035009;28;20706;-77
2021/08/04 04:54:24;;;;;;;34.10;23.25;;;;;;;;;;5034624;28;20405;-78
2021/08/04 04:56:50;;;;;;;37.47;25.40;;;;;;;;;;5035383;28;20542;-77
2021/08/04 04:59:16;;;;;;;33.27;26.00;;;;;;;;;;5035237;28;20445;-77
2021/08/04 05:01:42;;;;;;;36.67;22.70;;;;;;;;;;5035236;28;20495;-77
2021/08/04 05:04:08;;;;;;;25.53;21.67;;;;;;;;;;5034466;28;20546;-80
2021/08/04 05:06:35;;;;;;;28.90;21.90;;;;;;;;;;5034805;28;20799;-77
2021/08/04 05:09:02;;;;;;;28.93;21.20;;;;;;;;;;5034936;28;20448;-78
2021/08/04 05:11:28;;;;;;;25.93;20.80;;;;;;;;;;5034858;28;20412;-77
2021/08/04 05:13:54;;;;;;;24.00;21.23;;;;;;;;;;5027797;28;20425;-78
2021/08/04 05:16:20;;;;;;;37.47;24.43;;;;;;;;;;5014225;28;20433;-79
2021/08/04 05:18:46;;;;;;;31.00;23.00;;;;;;;;;;5014379;28;20422;-78
2021/08/04 05:21:12;;;;;;;31.20;25.80;;;;;;;;;;5014736;28;20774;-78
2021/08/04 05:23:38;;;;;;;38.47;27.63;;;;;;;;;;5014367;28;20418;-78
2021/08/04 05:26:04;;;;;;;41.07;29.50;;;;;;;;;;4996936;28;20989;-78
2021/08/04 05:28:30;;;;;;;42.90;31.63;;;;;;;;;;5014690;28;20476;-78
2021/08/04 05:30:56;;;;;;;41.97;31.77;;;;;;;;;;5014710;28;20500;-78
2021/08/04 05:33:22;;;;;;;50.13;33.10;;;;;;;;;;5014294;28;20413;-77
2021/08/04 05:35:48;;;;;;;53.07;36.10;;;;;;;;;;5014517;28;20914;-77
2021/08/04 05:38:14;;;;;;;58.13;35.87;;;;;;;;;;5014196;28;20899;-78
2021/08/04 05:40:40;;;;;;;45.60;32.83;;;;;;;;;;5014270;28;20417;-77
2021/08/04 05:43:06;;;;;;;51.03;36.53;;;;;;;;;;5014168;28;20425;-77
2021/08/04 05:45:33;;;;;;;45.70;33.90;;;;;;;;;;5014261;28;20430;-77
2021/08/04 05:47:59;;;;;;;50.27;34.77;;;;;;;;;;5014246;28;20461;-77
2021/08/04 05:50:25;;;;;;;48.40;36.57;;;;;;;;;;5014047;28;21006;-77
2021/08/04 05:52:52;;;;;;;57.17;36.87;;;;;;;;;;5013832;28;20414;-77
2021/08/04 05:55:18;;;;;;;49.20;37.53;;;;;;;;;;4996692;28;20793;-77
2021/08/04 05:57:44;;;;;;;49.10;38.97;;;;;;;;;;5014438;28;20476;-77
2021/08/04 06:00:10;;;;;;;45.67;35.03;;;;;;;;;;5013966;28;20444;-78
2021/08/04 06:02:36;;;;;;;44.73;35.00;;;;;;;;;;4996213;28;20453;-78
2021/08/04 06:05:25;;;;;;;46.23;34.57;;;;;;;;;;5010146;23;20489;-78
2021/08/04 06:08:00;;;;;;;52.17;36.30;;;;;;;;;;5014015;28;20497;-78
2021/08/04 06:10:51;;;;;;;44.97;35.27;;;;;;;;;;5012169;28;20429;-78
2021/08/04 06:14:00;;;;;;;42.33;34.33;;;;;;;;;;5013821;28;20884;-78
2021/08/04 06:16:53;;;;;;;44.90;34.60;;;;;;;;;;5008274;28;20489;-78
2021/08/04 06:19:37;;;;;;;38.50;31.27;;;;;;;;;;5011942;28;20421;-78
2021/08/04 06:22:24;;;;;;;43.67;33.13;;;;;;;;;;5012933;28;20396;-78
2021/08/04 06:28:00;;;;;;;35.97;31.30;;;;;;;;;;4992480;28;20529;-78
2021/08/04 06:31:03;;;;;;;34.53;30.80;;;;;;;;;;4933510;28;20839;-78
2021/08/04 06:33:51;;;;;;;45.07;30.50;;;;;;;;;;4972260;28;20933;-79
2021/08/04 06:36:17;;;;;;;37.23;29.50;;;;;;;;;;5031240;23;20993;-78
2021/08/04 06:38:43;;;;;;;35.20;28.33;;;;;;;;;;5013352;28;20421;-79
2021/08/04 06:41:10;;;;;;;35.90;27.77;;;;;;;;;;5013484;28;20410;-79
2021/08/04 06:43:36;;;;;;;31.43;27.50;;;;;;;;;;5013287;28;20902;-79
2021/08/04 06:46:08;;;;;;;33.07;26.70;;;;;;;;;;5012855;28;20440;-78
2021/08/04 06:48:34;;;;;;;37.33;27.70;;;;;;;;;;5013356;28;20488;-79
2021/08/04 06:51:02;;;;;;;32.07;27.67;;;;;;;;;;5013345;28;20402;-78
2021/08/04 06:53:28;;;;;;;38.10;27.10;;;;;;;;;;5013095;28;20432;-79
2021/08/04 06:55:54;;;;;;;28.87;25.53;;;;;;;;;;5013369;28;20437;-78
2021/08/04 06:58:20;;;;;;;30.73;24.47;;;;;;;;;;5013332;28;20929;-78
2021/08/04 07:00:46;;;;;;;30.37;26.07;;;;;;;;;;5013281;28;20443;-78
2021/08/04 07:03:12;;;;;;;33.87;27.13;;;;;;;;;;4995529;28;20985;-79
2021/08/04 07:12:05;;;;;;;33.90;27.33;;;;;;;;;;4971879;28;20414;-78
2021/08/04 07:18:09;;;;;;;34.03;25.70;;;;;;;;;;4967665;28;20423;-79
2021/08/04 07:21:09;;;;;;;33.83;27.00;;;;;;;;;;4971257;28;20511;-79
2021/08/04 07:29:26;;;;;;;26.03;22.17;;;;;;;;;;4135933;26;21010;-79
2021/08/04 07:32:04;;;;;;;26.13;22.93;;;;;;;;;;4993323;28;20473;-79
2021/08/04 07:34:52;;;;;;;27.70;22.70;;;;;;;;;;4993001;28;20434;-79
2021/08/04 07:40:32;;;;;;;23.90;21.27;;;;;;;;;;4982348;28;20431;-79
2021/08/04 07:43:33;;;;;;;25.37;21.23;;;;;;;;;;4992981;28;20501;-79
2021/08/04 07:46:18;;;;;;;23.70;21.20;;;;;;;;;;4993363;28;20856;-79
2021/08/04 07:49:50;;;;;;;24.90;21.27;;;;;;;;;;4993144;28;20458;-79
2021/08/04 08:25:54;;;;;;;;;;;;;;;;;;;;;
2021/08/04 08:31:34;;;;;;;20.57;17.17;;;;;;;;;;4902064;29;20419;-79
2021/08/04 08:34:35;;;;;;;19.23;17.20;;;;;;;;;;4942255;28;20395;-80
2021/08/04 08:40:26;;;;;;;;;;;;;;;;;;;;;
2021/08/04 08:43:24;;;;;;;19.27;17.03;;;;;;;;;;4995425;28;20421;-80
2021/08/04 08:46:54;;;;;;;18.00;16.17;;;;;;;;;;4935236;29;20485;-80
2021/08/04 09:11:06;;;;;;;;;;;;;;;;;;;;;
2021/08/04 09:14:10;;;;;;;22.03;15.90;;;;;;;;;;4804819;29;20405;-79
2021/08/04 09:17:06;;;;;;;20.20;17.30;;;;;;;;;;4799217;29;20432;-79
2021/08/04 09:23:25;;;;;;;;;;;;;;;;;;;;;
2021/08/04 09:32:54;;;;;;;16.83;13.80;;;;;;;;;;4861898;29;20492;-80
2021/08/04 09:35:44;;;;;;;15.10;13.63;;;;;;;;;;4878133;29;20443;-80
2021/08/04 09:38:34;;;;;;;16.00;13.33;;;;;;;;;;4881480;29;20427;-80
2021/08/04 09:48:12;;;;;;;15.00;13.20;;;;;;;;;;4993741;28;20452;-80
2021/08/04 09:57:53;;;;;;;;;;;;;;;;;;;;;
2021/08/04 10:00:55;;;;;;;;;;;;;;;;;;;;;
2021/08/04 10:07:30;;;;;;;;;;;;;;;;;;;;;
2021/08/04 10:10:43;;;;;;;12.53;11.47;;;;;;;;;;4785914;30;20428;-79
2021/08/04 10:38:58;;;;;;;;;;;;;;;;;;;;;
2021/08/04 10:51:26;;;;;;;11.03;9.93;;;;;;;;;;5011946;28;20861;-80
2021/08/04 11:06:10;;;;;;;11.60;10.70;;;;;;;;;;4969808;28;20418;-80
2021/08/04 11:09:06;;;;;;;14.13;12.73;;;;;;;;;;4969081;28;20442;-80
2021/08/04 11:12:13;;;;;;;11.17;10.00;;;;;;;;;;4967877;28;20489;-80
2021/08/04 11:18:06;;;;;;;14.10;12.57;;;;;;;;;;4964322;28;20389;-79
2021/08/04 11:20:56;;;;;;;17.03;12.90;;;;;;;;;;4970467;28;20410;-79
2021/08/04 11:23:56;;;;;;;;;;;;;;;;;;;;;
2021/08/04 11:30:06;;;;;;;;;;;;;;;;;;;;;
2021/08/04 11:33:32;;;;;;;;;;;;;;;;;;;;;
2021/08/04 11:36:38;;;;;;;13.50;11.70;;;;;;;;;;4979083;28;20468;-80
2021/08/04 11:39:50;;;;;;;12.70;11.40;;;;;;;;;;5013755;28;20584;-79
2021/08/04 11:42:27;;;;;;;12.80;10.87;;;;;;;;;;4915712;29;20396;-78
2021/08/04 11:45:09;;;;;;;11.93;10.50;;;;;;;;;;4994982;28;20879;-78
2021/08/04 11:48:14;;;;;;;12.63;11.17;;;;;;;;;;5013820;28;20425;-80
2021/08/04 11:51:16;;;;;;;;;;;;;;;;;;;;;
2021/08/04 11:57:57;;;;;;;18.50;10.80;;;;;;;;;;5064310;23;21048;-80
2021/08/04 12:13:02;;;;;;;12.50;11.00;;;;;;;;;;5022890;28;20384;-80
2021/08/04 12:16:24;;;;;;;;;;;;;;;;;;;;;
2021/08/04 12:41:11;;;;;;;7.40;6.60;;;;;;;;;;4914737;29;20430;-80
2021/08/04 12:43:10;;;;;;;7.63;6.53;;;;;;;;;;4906640;29;20467;-80
2021/08/04 12:49:23;;;;;;;6.83;6.07;;;;;;;;;;4900610;29;20556;-80
2021/08/04 13:01:42;;;;;;;4.30;4.00;;;;;;;;;;4876683;29;20399;-80
2021/08/04 13:07:13;;;;;;;;;;;;;;;;;;;;;
2021/08/04 13:09:51;;;;;;;5.00;4.60;;;;;;;;;;5010761;28;20504;-80
2021/08/04 13:13:19;;;;;;;5.33;4.60;;;;;;;;;;5012310;28;20447;-80
2021/08/04 13:16:10;;;;;;;4.03;3.73;;;;;;;;;;4932096;29;20449;-81
2021/08/04 13:18:38;;;;;;;4.90;4.50;;;;;;;;;;4932533;29;20433;-81
2021/08/04 13:27:38;;;;;;;5.97;5.40;;;;;;;;;;4872133;29;21029;-80
2021/08/04 13:34:07;;;;;;;5.30;4.80;;;;;;;;;;4871813;29;20817;-80
2021/08/04 13:37:10;;;;;;;4.53;4.13;;;;;;;;;;4973695;28;20817;-80
2021/08/04 13:43:01;;;;;;;;;;;;;;;;;;;;;
2021/08/04 13:49:03;;;;;;;;;;;;;;;;;;;;;
2021/08/04 13:52:05;;;;;;;4.83;4.40;;;;;;;;;;4972575;28;20422;-80
2021/08/04 13:58:17;;;;;;;4.07;3.67;;;;;;;;;;4967024;28;20419;-82
2021/08/04 14:01:08;;;;;;;5.63;5.10;;;;;;;;;;4930987;29;20421;-81
2021/08/04 14:03:39;;;;;;;5.33;4.93;;;;;;;;;;4947485;28;20419;-80
2021/08/04 14:15:02;;;;;;;5.27;4.80;;;;;;;;;;4930790;29;20470;-80
2021/08/04 14:36:00;;;;;;;;;;;;;;;;;;;;;
2021/08/04 14:51:39;;;;;;;5.60;5.10;;;;;;;;;;4923493;29;20907;-81
2021/08/04 15:00:23;;;;;;;6.00;5.03;;;;;;;;;;5002234;28;20414;-80
2021/08/04 15:05:43;;;;;;;5.87;5.27;;;;;;;;;;5000647;28;20449;-82
2021/08/04 15:08:08;;;;;;;6.10;5.50;;;;;;;;;;4997758;28;20465;-82
2021/08/04 15:10:35;;;;;;;6.50;5.33;;;;;;;;;;4998676;28;20433;-81
2021/08/04 15:13:01;;;;;;;6.00;4.73;;;;;;;;;;5014347;28;20428;-81
2021/08/04 15:15:27;;;;;;;6.20;5.37;;;;;;;;;;5015890;28;20438;-81
2021/08/04 15:17:53;;;;;;;5.30;4.80;;;;;;;;;;5015237;28;20479;-80
2021/08/04 15:20:19;;;;;;;7.43;5.63;;;;;;;;;;5015030;28;20421;-80
2021/08/04 15:22:45;;;;;;;6.00;5.40;;;;;;;;;;5015208;28;20444;-81
2021/08/04 15:25:11;;;;;;;6.07;5.33;;;;;;;;;;5015425;28;20459;-79
2021/08/04 15:27:37;;;;;;;7.47;5.70;;;;;;;;;;5015017;28;20426;-80
2021/08/04 15:30:04;;;;;;;6.97;6.27;;;;;;;;;;5015289;28;20508;-80
2021/08/04 15:32:30;;;;;;;5.93;5.33;;;;;;;;;;5015655;28;20449;-81
2021/08/04 15:34:56;;;;;;;6.60;5.10;;;;;;;;;;4995778;28;20453;-80
2021/08/04 15:37:22;;;;;;;7.83;5.20;;;;;;;;;;5014683;28;20448;-80
2021/08/04 15:39:48;;;;;;;6.20;5.50;;;;;;;;;;5015083;28;20429;-80
2021/08/04 15:42:14;;;;;;;5.23;4.70;;;;;;;;;;5015134;28;20532;-81
2021/08/04 15:44:40;;;;;;;5.00;4.60;;;;;;;;;;5015030;28;20438;-81
2021/08/04 15:47:07;;;;;;;6.83;4.50;;;;;;;;;;5016665;28;20440;-80
2021/08/04 15:49:35;;;;;;;5.47;5.07;;;;;;;;;;5015657;28;20469;-80
2021/08/04 15:52:01;;;;;;;5.97;5.47;;;;;;;;;;5016417;28;20910;-80
2021/08/04 15:54:27;;;;;;;6.60;5.97;;;;;;;;;;5016021;28;20430;-81
2021/08/04 15:56:56;;;;;;;5.63;5.10;;;;;;;;;;5016386;28;20453;-80
2021/08/04 15:59:22;;;;;;;5.63;4.53;;;;;;;;;;5016320;28;20420;-80
2021/08/04 16:02:01;;;;;;;5.40;4.73;;;;;;;;;;5016456;28;20414;-80
2021/08/04 16:04:30;;;;;;;7.63;4.33;;;;;;;;;;5015891;28;20831;-80
2021/08/04 16:06:55;;;;;;;6.33;4.90;;;;;;;;;;5016566;28;20418;-80
2021/08/04 16:09:21;;;;;;;4.63;4.10;;;;;;;;;;5016124;28;20523;-79
2021/08/04 16:11:47;;;;;;;9.40;4.83;;;;;;;;;;5016278;28;20405;-78
2021/08/04 16:14:13;;;;;;;7.00;4.70;;;;;;;;;;5015724;28;20774;-77
2021/08/04 16:16:39;;;;;;;6.90;4.53;;;;;;;;;;5016138;28;20464;-83
2021/08/04 16:19:09;;;;;;;5.20;4.70;;;;;;;;;;5015022;28;20406;-80
2021/08/04 16:21:35;;;;;;;4.40;4.00;;;;;;;;;;4998633;28;20946;-80
2021/08/04 16:24:01;;;;;;;4.97;4.23;;;;;;;;;;5015601;28;20445;-80
2021/08/04 16:26:27;;;;;;;4.10;3.70;;;;;;;;;;5015676;28;20422;-79
2021/08/04 16:28:53;;;;;;;3.90;3.60;;;;;;;;;;5015585;28;20805;-79
2021/08/04 16:31:19;;;;;;;4.00;3.70;;;;;;;;;;4998250;28;20414;-79
2021/08/04 16:33:48;;;;;;;5.43;4.13;;;;;;;;;;5015463;28;20426;-79
2021/08/04 16:36:14;;;;;;;7.23;4.40;;;;;;;;;;4997831;28;20446;-79
2021/08/04 16:38:40;;;;;;;5.00;4.50;;;;;;;;;;5015593;28;20903;-78
2021/08/04 16:41:07;;;;;;;6.27;4.50;;;;;;;;;;5015478;28;20428;-78
2021/08/04 16:43:34;;;;;;;5.20;4.70;;;;;;;;;;5015272;28;20425;-78
2021/08/04 16:45:59;;;;;;;5.30;3.87;;;;;;;;;;5015336;28;20552;-78
2021/08/04 16:48:26;;;;;;;4.80;4.40;;;;;;;;;;5015371;28;20474;-79
2021/08/04 16:50:52;;;;;;;4.90;3.87;;;;;;;;;;5015355;28;20409;-80
2021/08/04 16:53:18;;;;;;;4.37;3.97;;;;;;;;;;5015056;28;20505;-79
2021/08/04 16:55:44;;;;;;;5.60;4.47;;;;;;;;;;5015041;28;20481;-79
2021/08/04 16:58:10;;;;;;;5.57;4.70;;;;;;;;;;5015190;28;21023;-79
2021/08/04 17:00:46;;;;;;;5.00;4.13;;;;;;;;;;5015104;28;20410;-77
2021/08/04 17:03:12;;;;;;;4.37;4.03;;;;;;;;;;4997303;28;20398;-78
2021/08/04 17:05:39;;;;;;;5.80;4.27;;;;;;;;;;5015127;28;20416;-78
2021/08/04 17:08:06;;;;;;;5.90;3.90;;;;;;;;;;5015237;28;20433;-81
2021/08/04 17:10:32;;;;;;;4.20;3.80;;;;;;;;;;5015291;28;20781;-80
2021/08/04 17:12:58;;;;;;;4.40;4.00;;;;;;;;;;5014880;28;20424;-80
2021/08/04 17:15:24;;;;;;;4.47;4.07;;;;;;;;;;5014852;28;20436;-80
2021/08/04 17:17:50;;;;;;;3.63;3.33;;;;;;;;;;5014797;28;20779;-81
2021/08/04 17:20:16;;;;;;;3.87;3.30;;;;;;;;;;5014612;28;20897;-80
2021/08/04 17:22:46;;;;;;;5.13;4.40;;;;;;;;;;5014871;28;20412;-80
2021/08/04 17:25:13;;;;;;;10.23;9.20;;;;;;;;;;5014946;28;20494;-80
2021/08/04 17:27:39;;;;;;;9.73;8.90;;;;;;;;;;5013856;28;20984;-83
2021/08/04 17:30:06;;;;;;;10.97;9.97;;;;;;;;;;5014507;28;20564;-83
2021/08/04 17:32:32;;;;;;;10.33;9.43;;;;;;;;;;5014953;28;20936;-83
2021/08/04 17:34:58;;;;;;;10.33;9.10;;;;;;;;;;5014310;28;20500;-83
2021/08/04 17:37:24;;;;;;;9.30;8.33;;;;;;;;;;5014544;28;20501;-83
2021/08/04 17:39:50;;;;;;;11.50;9.77;;;;;;;;;;5014829;28;20901;-83
2021/08/04 17:42:16;;;;;;;12.03;8.93;;;;;;;;;;5014562;28;20410;-80
2021/08/04 17:44:42;;;;;;;13.87;9.63;;;;;;;;;;5013004;28;20429;-78
2021/08/04 17:47:08;;;;;;;12.13;10.90;;;;;;;;;;5014345;28;20381;-78
2021/08/04 17:49:34;;;;;;;10.67;9.70;;;;;;;;;;5014168;28;21069;-75
2021/08/04 17:52:01;;;;;;;11.73;10.33;;;;;;;;;;5014450;28;20508;-75
2021/08/04 17:54:27;;;;;;;9.80;9.00;;;;;;;;;;5013824;28;20464;-75
2021/08/04 17:56:53;;;;;;;29.33;10.13;;;;;;;;;;5013984;28;20934;-75
2021/08/04 17:59:19;;;;;;;20.13;9.60;;;;;;;;;;5014026;28;20969;-75
2021/08/04 18:01:45;;;;;;;11.40;10.30;;;;;;;;;;5014041;28;20467;-74
2021/08/04 18:04:11;;;;;;;11.17;10.13;;;;;;;;;;5013577;28;20369;-75
2021/08/04 18:06:37;;;;;;;11.60;10.40;;;;;;;;;;5013996;28;20456;-76
2021/08/04 18:09:04;;;;;;;11.23;9.57;;;;;;;;;;5013999;28;20453;-74
2021/08/04 18:11:30;;;;;;;10.80;9.80;;;;;;;;;;5013762;28;20414;-75
2021/08/04 18:13:56;;;;;;;11.53;10.13;;;;;;;;;;5013599;28;20480;-75
2021/08/04 18:16:22;;;;;;;10.63;9.63;;;;;;;;;;5013825;28;20436;-75
2021/08/04 18:18:48;;;;;;;11.63;10.53;;;;;;;;;;5013988;28;20381;-75
2021/08/04 18:21:14;;;;;;;10.20;9.20;;;;;;;;;;5014081;28;20877;-75
2021/08/04 18:23:40;;;;;;;11.67;9.77;;;;;;;;;;5013277;28;20422;-75
2021/08/04 18:26:06;;;;;;;10.37;9.37;;;;;;;;;;5013667;28;20439;-75
2021/08/04 18:28:32;;;;;;;10.00;9.00;;;;;;;;;;5013629;28;20462;-75
2021/08/04 18:30:58;;;;;;;10.70;9.70;;;;;;;;;;5013639;28;20721;-75
2021/08/04 18:33:24;;;;;;;11.73;10.63;;;;;;;;;;5013417;28;20760;-75
2021/08/04 18:35:50;;;;;;;9.83;9.03;;;;;;;;;;5013377;28;20469;-74
2021/08/04 18:38:17;;;;;;;11.70;9.47;;;;;;;;;;5013556;28;20443;-75
2021/08/04 18:40:43;;;;;;;10.73;9.63;;;;;;;;;;5012906;28;20413;-75
2021/08/04 18:43:09;;;;;;;12.80;10.37;;;;;;;;;;5013211;28;20385;-76
2021/08/04 18:45:35;;;;;;;12.30;11.20;;;;;;;;;;5013247;28;20826;-74
2021/08/04 18:48:01;;;;;;;14.20;12.77;;;;;;;;;;5013247;28;20429;-74
2021/08/04 18:50:27;;;;;;;14.60;12.97;;;;;;;;;;5013371;28;20421;-74
2021/08/04 18:52:54;;;;;;;11.77;10.67;;;;;;;;;;5013008;28;20936;-75
2021/08/04 18:55:20;;;;;;;12.57;11.43;;;;;;;;;;5013116;28;20436;-76
2021/08/04 18:57:46;;;;;;;12.83;11.37;;;;;;;;;;5013069;28;20455;-76
2021/08/04 19:00:12;;;;;;;19.17;15.80;;;;;;;;;;5013042;28;20501;-76
2021/08/04 19:02:46;;;;;;;15.60;14.20;;;;;;;;;;5013197;28;20859;-76
2021/08/04 19:05:12;;;;;;;17.07;15.40;;;;;;;;;;5013087;28;20479;-76
2021/08/04 19:07:38;;;;;;;16.20;14.27;;;;;;;;;;5013283;28;20406;-76
2021/08/04 19:10:04;;;;;;;13.67;12.47;;;;;;;;;;5013191;28;20469;-76
2021/08/04 19:12:33;;;;;;;12.90;11.70;;;;;;;;;;5012304;28;20464;-76
2021/08/04 19:14:59;;;;;;;14.10;12.70;;;;;;;;;;5013007;28;20433;-76
2021/08/04 19:17:25;;;;;;;12.83;11.63;;;;;;;;;;5011976;28;20418;-76
2021/08/04 19:19:51;;;;;;;13.63;12.20;;;;;;;;;;5013320;28;20476;-76
2021/08/04 19:22:17;;;;;;;12.57;11.43;;;;;;;;;;5012971;28;20400;-76
2021/08/04 19:27:16;;;;;;;12.63;11.33;;;;;;;;;;5049804;28;20450;-76
2021/08/04 19:29:46;;;;;;;14.23;12.83;;;;;;;;;;5052590;28;20487;-76
2021/08/04 19:32:22;;;;;;;13.30;12.10;;;;;;;;;;5052805;28;20424;-76
2021/08/04 19:35:02;;;;;;;16.13;14.60;;;;;;;;;;5052424;28;20429;-76
2021/08/04 19:37:28;;;;;;;15.60;14.03;;;;;;;;;;5036156;28;20397;-76
2021/08/04 19:40:02;;;;;;;14.87;13.30;;;;;;;;;;5052599;28;20383;-76
2021/08/04 19:42:38;;;;;;;13.77;12.47;;;;;;;;;;5052630;28;20391;-76
2021/08/04 19:45:07;;;;;;;18.30;12.10;;;;;;;;;;5052279;28;20490;-76
2021/08/04 19:47:36;;;;;;;14.13;12.83;;;;;;;;;;5052361;28;20444;-76
2021/08/04 19:50:11;;;;;;;15.23;13.73;;;;;;;;;;5052222;28;20499;-76
2021/08/04 19:52:37;;;;;;;16.13;14.73;;;;;;;;;;5054191;28;20405;-76
2021/08/04 19:55:08;;;;;;;14.37;12.97;;;;;;;;;;5055859;28;20878;-76
2021/08/04 19:57:49;;;;;;;13.00;11.87;;;;;;;;;;5038901;28;20398;-77
2021/08/04 20:00:21;;;;;;;13.67;12.37;;;;;;;;;;5056070;28;20400;-77
2021/08/04 20:02:47;;;;;;;15.50;14.00;;;;;;;;;;5055685;28;20391;-76
2021/08/04 20:05:35;;;;;;;;;;;;;;;;;;;;;
2021/08/04 20:08:03;;;;;;;15.17;13.87;;;;;;;;;;5052115;28;20401;-75
2021/08/04 20:10:30;;;;;;;17.10;15.30;;;;;;;;;;5055870;28;20479;-76